Time;durP1;ratioP1;P1;durP2;ratioP2;P2;SDS_P1;SDS_P2;PMS_P1;PMS_P2;Temp;Humidity;BMP_temperature;BMP_pressure;BME280_temperature;BME280_humidity;BME280_pressure;Samples;Min_cycle;Max_cycle;Signal;HPM_P1;HPM_P2
2021/10/16 00:00:08;;;;;;;16.33;5.43;;;6.60;99.90;;;;;;5049499;28;20028;-58
2021/10/16 00:02:33;;;;;;;21.98;6.80;;;6.50;99.90;;;;;;5049496;28;20025;-58
2021/10/16 00:04:59;;;;;;;22.30;5.75;;;6.40;99.90;;;;;;5048953;28;20036;-56
2021/10/16 00:07:24;;;;;;;19.70;5.70;;;6.30;99.90;;;;;;5046273;28;20056;-57
2021/10/16 00:09:50;;;;;;;17.52;4.93;;;6.30;99.90;;;;;;5048663;28;20036;-58
2021/10/16 00:12:16;;;;;;;16.75;5.03;;;6.20;99.90;;;;;;5049382;28;20025;-57
2021/10/16 00:14:42;;;;;;;19.65;5.72;;;6.20;99.90;;;;;;5048307;28;20025;-58
2021/10/16 00:17:07;;;;;;;18.90;5.93;;;6.10;99.90;;;;;;5048340;28;20068;-59
2021/10/16 00:19:33;;;;;;;21.05;6.55;;;6.10;99.90;;;;;;5047696;28;20052;-58
2021/10/16 00:21:59;;;;;;;20.13;6.00;;;6.20;99.90;;;;;;5050156;28;20040;-54
2021/10/16 00:24:24;;;;;;;24.15;5.75;;;6.20;99.90;;;;;;5050703;28;20025;-56
2021/10/16 00:26:50;;;;;;;15.15;5.40;;;6.10;99.90;;;;;;5053423;28;20033;-55
2021/10/16 00:29:15;;;;;;;22.80;6.18;;;6.10;99.90;;;;;;5053559;28;20033;-56
2021/10/16 00:31:41;;;;;;;19.27;6.15;;;6.20;99.90;;;;;;5053521;28;20648;-56
2021/10/16 00:34:07;;;;;;;22.80;7.25;;;6.30;99.90;;;;;;5053929;28;20410;-58
2021/10/16 00:36:32;;;;;;;14.73;5.78;;;6.10;99.90;;;;;;5052709;28;20398;-56
2021/10/16 00:38:58;;;;;;;16.73;5.57;;;6.10;99.90;;;;;;5053213;28;20564;-54
2021/10/16 00:41:23;;;;;;;15.02;5.40;;;6.10;99.90;;;;;;5053375;28;20028;-54
2021/10/16 00:44:18;;;;;;;13.93;5.45;;;6.10;99.90;;;;;;5053661;28;20513;-56
2021/10/16 00:46:44;;;;;;;18.67;6.32;;;6.00;99.90;;;;;;5052622;28;20041;-59
2021/10/16 00:49:10;;;;;;;20.30;5.50;;;5.90;99.90;;;;;;5052282;28;20033;-58
2021/10/16 00:51:36;;;;;;;17.70;5.57;;;5.90;99.90;;;;;;5052319;28;20033;-57
2021/10/16 00:54:01;;;;;;;16.25;5.63;;;5.80;99.90;;;;;;5053188;28;20048;-56
2021/10/16 00:56:28;;;;;;;20.45;5.95;;;5.70;99.90;;;;;;5053259;28;20102;-57
2021/10/16 00:58:55;;;;;;;15.48;5.50;;;5.60;99.90;;;;;;5052796;28;20498;-58
2021/10/16 01:01:20;;;;;;;17.75;5.90;;;5.60;99.90;;;;;;5052738;28;20033;-54
2021/10/16 01:03:46;;;;;;;19.55;6.78;;;5.60;99.90;;;;;;5052379;28;20031;-54
2021/10/16 01:06:11;;;;;;;17.80;6.05;;;5.60;99.90;;;;;;5052618;28;20072;-59
2021/10/16 01:08:37;;;;;;;16.98;6.10;;;5.60;99.90;;;;;;5052221;28;20445;-57
2021/10/16 01:11:03;;;;;;;22.67;6.55;;;5.70;99.90;;;;;;5052886;28;20025;-57
2021/10/16 01:13:29;;;;;;;23.55;7.22;;;5.70;99.90;;;;;;5052794;28;20036;-57
2021/10/16 01:15:56;;;;;;;13.88;6.22;;;5.60;99.90;;;;;;5052648;28;20029;-51
2021/10/16 01:18:22;;;;;;;14.98;5.75;;;5.60;99.90;;;;;;5048832;28;20112;-57
2021/10/16 01:21:08;;;;;;;21.88;6.53;;;5.70;99.90;;;;;;5052659;28;20028;-58
2021/10/16 01:23:35;;;;;;;19.02;7.10;;;5.60;99.90;;;;;;5048775;28;20112;-56
2021/10/16 01:26:02;;;;;;;20.80;6.93;;;5.60;99.90;;;;;;5052552;28;20498;-58
2021/10/16 01:28:29;;;;;;;16.95;6.15;;;5.70;99.90;;;;;;5052029;28;20044;-55
2021/10/16 01:30:56;;;;;;;17.38;6.85;;;5.80;99.90;;;;;;5052578;28;20071;-58
2021/10/16 01:33:28;;;;;;;26.35;6.50;;;5.70;99.90;;;;;;5048985;28;20060;-57
2021/10/16 01:36:02;;;;;;;22.90;6.65;;;5.60;99.90;;;;;;5045644;28;20043;-55
2021/10/16 01:38:29;;;;;;;14.32;5.60;;;5.50;99.90;;;;;;5052054;28;20059;-59
2021/10/16 01:40:55;;;;;;;15.00;5.97;;;5.50;99.90;;;;;;5053152;28;20021;-58
2021/10/16 01:43:21;;;;;;;16.15;5.93;;;5.40;99.90;;;;;;5052975;28;20025;-59
2021/10/16 01:45:46;;;;;;;18.90;5.93;;;5.40;99.90;;;;;;5051900;28;20167;-56
2021/10/16 01:48:12;;;;;;;15.38;5.95;;;5.40;99.90;;;;;;5050403;28;20117;-58
2021/10/16 01:50:39;;;;;;;17.70;6.53;;;5.40;99.90;;;;;;5051532;28;20032;-56
2021/10/16 01:53:11;;;;;;;20.38;7.00;;;5.50;99.90;;;;;;5051441;28;20021;-54
2021/10/16 01:55:37;;;;;;;24.83;6.78;;;5.50;99.90;;;;;;5052449;28;20079;-54
2021/10/16 01:58:11;;;;;;;17.95;6.55;;;5.40;99.90;;;;;;5051089;28;20487;-56
2021/10/16 02:00:37;;;;;;;18.75;6.15;;;5.30;99.90;;;;;;5051638;28;20184;-57
2021/10/16 02:03:10;;;;;;;24.63;6.97;;;5.30;99.90;;;;;;5048716;28;20021;-54
2021/10/16 02:05:40;;;;;;;25.10;6.32;;;5.40;99.90;;;;;;5048029;28;20029;-58
2021/10/16 02:08:05;;;;;;;14.30;6.63;;;5.40;99.90;;;;;;5051471;28;20013;-58
2021/10/16 02:10:31;;;;;;;16.42;6.65;;;5.50;99.90;;;;;;5051862;28;20051;-58
2021/10/16 02:12:56;;;;;;;20.17;7.22;;;5.50;99.90;;;;;;5051596;28;20040;-59
2021/10/16 02:15:22;;;;;;;11.50;6.10;;;5.40;99.90;;;;;;5051429;28;20032;-56
2021/10/16 02:17:48;;;;;;;13.77;5.68;;;5.50;99.90;;;;;;5051147;28;20031;-55
2021/10/16 02:20:13;;;;;;;17.60;7.47;;;5.50;99.90;;;;;;5051642;28;20020;-56
2021/10/16 02:22:39;;;;;;;18.63;7.35;;;5.40;99.90;;;;;;5051429;28;20126;-59
2021/10/16 02:25:05;;;;;;;22.40;7.10;;;5.40;99.90;;;;;;5051122;28;20025;-55
2021/10/16 02:27:31;;;;;;;23.10;6.57;;;5.40;99.90;;;;;;5051469;28;20487;-59
2021/10/16 02:29:56;;;;;;;20.63;6.32;;;5.30;99.90;;;;;;5050044;28;20043;-58
2021/10/16 02:32:22;;;;;;;17.73;7.78;;;5.30;99.90;;;;;;5047255;28;20039;-59
2021/10/16 02:34:47;;;;;;;14.95;7.57;;;5.40;99.90;;;;;;5051180;28;20091;-59
2021/10/16 02:37:13;;;;;;;20.65;7.75;;;5.30;99.90;;;;;;5051016;28;20021;-55
2021/10/16 02:39:39;;;;;;;20.17;7.43;;;5.20;99.90;;;;;;5051278;28;20017;-57
2021/10/16 02:42:04;;;;;;;20.65;7.50;;;5.20;99.90;;;;;;5051238;28;20093;-58
2021/10/16 02:44:30;;;;;;;16.23;7.55;;;5.30;99.90;;;;;;5051197;28;20017;-59
2021/10/16 02:46:57;;;;;;;18.27;8.07;;;5.30;99.90;;;;;;5049079;28;20055;-59
2021/10/16 02:49:23;;;;;;;21.02;7.63;;;5.20;99.90;;;;;;5050845;28;20029;-56
2021/10/16 02:51:49;;;;;;;21.48;7.43;;;5.20;99.90;;;;;;5050884;28;20033;-58
2021/10/16 02:54:15;;;;;;;19.33;8.73;;;5.10;99.90;;;;;;5050899;28;20368;-59
2021/10/16 02:56:40;;;;;;;19.30;7.82;;;5.00;99.90;;;;;;5050951;28;20032;-56
2021/10/16 02:59:06;;;;;;;27.85;7.78;;;4.90;99.90;;;;;;5050539;28;20438;-60
2021/10/16 03:01:32;;;;;;;20.88;7.75;;;4.90;99.90;;;;;;5047527;28;20088;-59
2021/10/16 03:03:57;;;;;;;15.80;7.28;;;4.90;99.90;;;;;;5050962;28;20048;-58
2021/10/16 03:06:23;;;;;;;14.98;7.28;;;5.00;99.90;;;;;;5050100;28;20021;-59
2021/10/16 03:08:49;;;;;;;14.98;7.32;;;5.00;99.90;;;;;;5050385;28;20025;-58
2021/10/16 03:11:14;;;;;;;19.48;8.13;;;5.00;99.90;;;;;;5050276;28;20112;-55
2021/10/16 03:13:40;;;;;;;19.50;8.82;;;5.00;99.90;;;;;;5051262;28;20124;-57
2021/10/16 03:16:06;;;;;;;17.15;8.85;;;5.00;99.90;;;;;;5049573;28;20025;-55
2021/10/16 03:18:31;;;;;;;20.13;9.43;;;5.00;99.90;;;;;;5045630;28;20262;-54
2021/10/16 03:20:57;;;;;;;21.25;10.00;;;5.00;99.90;;;;;;5050705;28;20090;-59
2021/10/16 03:23:23;;;;;;;23.77;10.60;;;4.90;99.90;;;;;;5044889;28;20013;-58
2021/10/16 03:25:48;;;;;;;18.92;10.15;;;5.00;99.90;;;;;;5049373;28;20025;-59
2021/10/16 03:28:14;;;;;;;23.80;11.80;;;5.10;99.90;;;;;;5049963;28;20036;-56
2021/10/16 03:30:40;;;;;;;24.25;11.52;;;5.10;99.90;;;;;;5049635;28;20032;-59
2021/10/16 03:33:06;;;;;;;36.17;11.95;;;5.10;99.90;;;;;;5048519;28;20467;-56
2021/10/16 03:35:32;;;;;;;27.55;12.10;;;5.10;99.90;;;;;;5050282;28;20056;-56
2021/10/16 03:37:58;;;;;;;40.83;12.60;;;5.10;99.90;;;;;;5050321;28;20036;-55
2021/10/16 03:40:23;;;;;;;31.75;13.20;;;5.10;99.90;;;;;;5049759;28;20025;-58
2021/10/16 03:42:49;;;;;;;20.88;11.13;;;5.10;99.90;;;;;;5050057;28;20025;-57
2021/10/16 03:47:58;;;;;;;35.40;13.23;;;5.10;99.90;;;;;;5045222;28;20071;-56
2021/10/16 03:50:24;;;;;;;19.40;11.93;;;5.10;99.90;;;;;;5034972;28;20048;-57
2021/10/16 03:52:50;;;;;;;23.15;12.10;;;5.10;99.90;;;;;;5050899;28;20075;-57
2021/10/16 03:55:15;;;;;;;22.80;12.80;;;5.10;99.90;;;;;;5048648;28;20500;-56
2021/10/16 03:57:41;;;;;;;25.30;12.93;;;5.20;99.90;;;;;;5048384;28;20116;-56
2021/10/16 04:00:13;;;;;;;33.10;13.18;;;5.20;99.90;;;;;;5051430;28;20025;-58
2021/10/16 04:02:40;;;;;;;41.33;13.77;;;5.10;99.90;;;;;;5053099;28;20469;-56
2021/10/16 04:05:06;;;;;;;64.35;14.57;;;5.10;99.90;;;;;;5052563;28;20094;-56
2021/10/16 04:07:32;;;;;;;55.60;14.93;;;5.10;99.90;;;;;;5047582;28;20041;-60
2021/10/16 04:09:57;;;;;;;61.97;15.07;;;5.10;99.90;;;;;;5050829;28;20094;-55
2021/10/16 04:12:23;;;;;;;63.47;16.02;;;5.10;99.90;;;;;;5052058;28;20039;-57
2021/10/16 04:14:48;;;;;;;46.42;14.55;;;5.10;99.90;;;;;;5051578;28;20029;-58
2021/10/16 04:17:14;;;;;;;49.60;14.23;;;5.20;99.90;;;;;;5052340;28;20574;-57
2021/10/16 04:19:41;;;;;;;38.75;13.27;;;5.10;99.90;;;;;;5051672;28;20024;-57
2021/10/16 04:22:06;;;;;;;23.15;12.98;;;5.30;99.90;;;;;;5052748;28;20076;-57
2021/10/16 04:24:32;;;;;;;22.38;11.85;;;5.20;99.90;;;;;;5052671;28;20053;-59
2021/10/16 04:26:58;;;;;;;43.30;14.20;;;5.30;99.90;;;;;;5051780;28;20029;-56
2021/10/16 04:29:24;;;;;;;21.60;12.30;;;5.20;99.90;;;;;;5051010;28;20064;-57
2021/10/16 04:31:50;;;;;;;31.05;13.30;;;5.20;99.90;;;;;;5052389;28;20394;-57
2021/10/16 04:34:15;;;;;;;48.45;14.65;;;5.40;99.90;;;;;;5052385;28;20036;-59
2021/10/16 04:36:41;;;;;;;18.85;11.82;;;5.30;99.90;;;;;;5051906;28;20060;-58
2021/10/16 04:39:07;;;;;;;27.48;12.90;;;5.30;99.90;;;;;;5051573;28;20032;-56
2021/10/16 04:41:35;;;;;;;30.67;12.60;;;5.30;99.90;;;;;;5052023;28;20065;-58
2021/10/16 04:44:01;;;;;;;27.70;13.25;;;5.30;99.90;;;;;;5050306;28;20505;-56
2021/10/16 04:46:27;;;;;;;19.30;11.45;;;5.30;99.90;;;;;;5051998;28;20041;-58
2021/10/16 04:48:53;;;;;;;51.95;13.63;;;5.20;99.90;;;;;;5051633;28;20033;-57
2021/10/16 04:51:18;;;;;;;47.00;13.18;;;5.30;99.90;;;;;;5050738;28;20032;-56
2021/10/16 04:53:44;;;;;;;35.88;14.23;;;5.20;99.90;;;;;;5051551;28;20059;-57
2021/10/16 04:56:09;;;;;;;27.60;13.60;;;5.30;99.90;;;;;;5047438;28;20045;-58
2021/10/16 04:58:35;;;;;;;25.27;11.60;;;5.30;99.90;;;;;;5049527;28;20036;-56
2021/10/16 05:01:01;;;;;;;51.72;12.65;;;5.40;99.90;;;;;;5051789;28;20033;-55
2021/10/16 05:03:26;;;;;;;13.00;9.43;;;5.30;99.90;;;;;;5051782;28;20021;-56
2021/10/16 05:05:55;;;;;;;20.40;10.48;;;5.40;99.90;;;;;;5051810;28;20029;-58
2021/10/16 05:08:21;;;;;;;23.83;11.35;;;5.50;99.90;;;;;;5051562;28;20028;-57
2021/10/16 05:10:47;;;;;;;18.52;11.35;;;5.50;99.90;;;;;;5050185;28;20044;-58
2021/10/16 05:13:12;;;;;;;20.17;11.40;;;5.40;99.90;;;;;;5046859;28;20566;-55
2021/10/16 05:15:38;;;;;;;17.50;10.07;;;5.50;99.90;;;;;;5050680;28;20036;-58
2021/10/16 05:18:04;;;;;;;24.58;11.85;;;5.50;99.90;;;;;;5051843;28;20021;-56
2021/10/16 05:20:29;;;;;;;17.50;11.68;;;5.50;99.90;;;;;;5052014;28;20033;-58
2021/10/16 05:22:55;;;;;;;21.70;12.07;;;5.60;99.90;;;;;;5052056;28;20037;-55
2021/10/16 05:25:20;;;;;;;17.73;11.15;;;5.60;99.90;;;;;;5051434;28;20024;-58
2021/10/16 05:27:49;;;;;;;25.10;11.85;;;5.60;99.90;;;;;;5047655;28;20036;-55
2021/10/16 05:30:15;;;;;;;35.70;12.48;;;5.40;99.90;;;;;;5052096;28;20570;-59
2021/10/16 05:32:41;;;;;;;42.70;14.80;;;5.40;99.90;;;;;;5051044;28;20551;-55
2021/10/16 05:35:07;;;;;;;24.65;11.60;;;5.30;99.90;;;;;;5051278;28;20048;-60
2021/10/16 05:37:33;;;;;;;28.13;13.45;;;5.30;99.90;;;;;;5050258;28;20128;-58
2021/10/16 05:39:58;;;;;;;21.88;12.50;;;5.30;99.90;;;;;;5050843;28;20598;-57
2021/10/16 05:42:24;;;;;;;49.15;13.60;;;5.40;99.90;;;;;;5050086;28;20024;-55
2021/10/16 05:44:49;;;;;;;33.28;13.18;;;5.40;99.90;;;;;;5051727;28;20482;-58
2021/10/16 05:47:15;;;;;;;29.73;11.70;;;5.40;99.90;;;;;;5051044;28;20029;-56
2021/10/16 05:49:41;;;;;;;48.00;13.57;;;5.40;99.90;;;;;;5051788;28;20049;-58
2021/10/16 05:52:07;;;;;;;25.98;11.98;;;5.30;99.90;;;;;;5054653;28;20025;-59
2021/10/16 05:54:32;;;;;;;23.95;13.07;;;5.30;99.90;;;;;;5055490;28;20037;-59
2021/10/16 05:56:58;;;;;;;27.10;14.18;;;5.40;99.90;;;;;;5050123;28;20031;-59
2021/10/16 05:59:24;;;;;;;24.75;14.27;;;5.40;99.90;;;;;;5052234;28;20108;-59
2021/10/16 06:01:49;;;;;;;23.48;14.40;;;5.40;99.90;;;;;;5054525;28;20579;-58
2021/10/16 06:04:15;;;;;;;32.30;15.80;;;5.60;99.90;;;;;;5050409;28;20055;-59
2021/10/16 06:06:40;;;;;;;27.17;14.43;;;5.70;99.90;;;;;;5050088;28;20033;-59
2021/10/16 06:09:06;;;;;;;35.67;15.90;;;5.70;99.90;;;;;;5050415;28;20036;-59
2021/10/16 06:11:32;;;;;;;62.28;16.25;;;5.70;99.90;;;;;;5049589;28;20037;-57
2021/10/16 06:13:58;;;;;;;42.42;16.45;;;5.60;99.90;;;;;;5051109;28;20047;-57
2021/10/16 06:16:24;;;;;;;49.78;17.70;;;5.60;99.90;;;;;;5050646;28;20035;-59
2021/10/16 06:18:50;;;;;;;44.40;16.25;;;5.60;99.90;;;;;;5050980;28;20037;-58
2021/10/16 06:21:15;;;;;;;32.80;15.57;;;5.60;99.90;;;;;;5050709;28;20033;-59
2021/10/16 06:23:41;;;;;;;45.17;17.13;;;5.70;99.90;;;;;;5050048;28;20368;-56
2021/10/16 06:26:07;;;;;;;33.20;15.85;;;5.80;99.90;;;;;;5048543;28;20033;-58
2021/10/16 06:28:32;;;;;;;54.00;18.30;;;5.80;99.90;;;;;;5050196;28;20095;-58
2021/10/16 06:30:58;;;;;;;42.63;17.42;;;5.90;99.90;;;;;;5050970;28;20056;-58
2021/10/16 06:33:25;;;;;;;50.90;19.38;;;5.90;99.90;;;;;;5050740;28;20024;-57
2021/10/16 06:35:52;;;;;;;70.00;19.83;;;6.00;99.90;;;;;;5049962;28;20033;-59
2021/10/16 06:38:18;;;;;;;77.00;20.70;;;6.00;99.90;;;;;;5049612;28;20024;-58
2021/10/16 06:40:44;;;;;;;58.50;20.58;;;6.10;99.90;;;;;;5048492;28;20083;-59
2021/10/16 06:43:09;;;;;;;41.30;20.00;;;6.10;99.90;;;;;;5050371;28;20484;-59
2021/10/16 06:45:35;;;;;;;53.95;21.10;;;6.10;99.90;;;;;;5049773;28;20029;-57
2021/10/16 06:48:01;;;;;;;59.38;21.67;;;6.10;99.90;;;;;;5050259;28;20386;-59
2021/10/16 06:50:26;;;;;;;64.18;21.25;;;6.20;99.90;;;;;;5048963;28;20429;-58
2021/10/16 06:52:52;;;;;;;47.58;19.70;;;6.30;99.90;;;;;;5049136;28;20033;-58
2021/10/16 06:55:17;;;;;;;39.92;19.05;;;6.30;99.90;;;;;;5049333;28;20037;-57
2021/10/16 06:57:43;;;;;;;52.88;21.75;;;6.40;99.90;;;;;;5049539;28;20039;-58
2021/10/16 07:00:09;;;;;;;49.28;21.75;;;6.40;99.90;;;;;;5050002;28;20478;-56
2021/10/16 07:02:34;;;;;;;52.88;20.55;;;6.40;99.90;;;;;;5050136;28;20051;-58
2021/10/16 07:05:00;;;;;;;38.13;20.17;;;6.40;99.90;;;;;;5050299;28;20070;-56
2021/10/16 07:07:25;;;;;;;48.17;20.67;;;6.30;99.90;;;;;;5052913;28;20035;-56
2021/10/16 07:09:51;;;;;;;49.88;20.08;;;6.40;99.90;;;;;;5054731;28;20548;-57
2021/10/16 07:12:17;;;;;;;52.55;22.90;;;6.40;99.90;;;;;;5050404;28;20927;-56
2021/10/16 07:14:42;;;;;;;44.53;19.77;;;6.60;99.90;;;;;;5049385;28;20533;-58
2021/10/16 07:17:08;;;;;;;76.78;23.13;;;6.60;99.90;;;;;;5049137;28;20039;-59
2021/10/16 07:19:34;;;;;;;50.33;19.70;;;6.50;99.90;;;;;;5031919;28;20021;-57
2021/10/16 07:22:00;;;;;;;49.58;20.92;;;6.50;99.90;;;;;;5049020;28;20067;-56
2021/10/16 07:24:26;;;;;;;45.67;21.00;;;6.50;99.90;;;;;;5047781;28;20032;-58
2021/10/16 07:26:54;;;;;;;62.83;24.80;;;6.70;99.90;;;;;;5049888;28;20033;-55
2021/10/16 07:29:22;;;;;;;51.97;23.50;;;6.70;99.90;;;;;;5049947;28;20044;-57
2021/10/16 07:31:52;;;;;;;46.03;21.88;;;6.80;99.90;;;;;;5049382;28;20418;-58
2021/10/16 07:34:18;;;;;;;56.47;24.13;;;6.80;99.90;;;;;;5031873;28;20359;-57
2021/10/16 07:36:45;;;;;;;49.38;24.20;;;6.90;99.90;;;;;;5049750;28;20544;-56
2021/10/16 07:39:11;;;;;;;57.78;27.35;;;6.90;99.90;;;;;;5043770;28;20036;-58
2021/10/16 07:41:37;;;;;;;56.72;25.10;;;6.90;99.90;;;;;;5048362;28;20122;-60
2021/10/16 07:44:05;;;;;;;80.95;27.02;;;7.00;99.90;;;;;;5031316;28;20029;-60
2021/10/16 07:46:30;;;;;;;77.60;26.88;;;7.00;99.90;;;;;;5049308;28;20036;-58
2021/10/16 07:48:56;;;;;;;68.68;27.88;;;7.00;99.90;;;;;;5048861;28;20029;-59
2021/10/16 07:51:22;;;;;;;78.90;30.98;;;7.10;99.90;;;;;;5049202;28;20574;-59
2021/10/16 07:53:47;;;;;;;68.80;31.17;;;7.10;99.90;;;;;;5049095;28;20040;-59
2021/10/16 07:56:13;;;;;;;87.32;30.38;;;7.10;99.90;;;;;;5049139;28;20040;-59
2021/10/16 07:58:40;;;;;;;78.13;27.08;;;7.20;99.90;;;;;;5047041;28;20044;-58
2021/10/16 08:01:06;;;;;;;91.05;32.40;;;7.20;99.90;;;;;;5049185;28;20021;-58
2021/10/16 08:03:32;;;;;;;68.63;28.45;;;7.10;99.90;;;;;;5042671;28;20113;-59
2021/10/16 08:05:57;;;;;;;70.78;30.55;;;7.20;99.90;;;;;;5048803;28;20092;-56
2021/10/16 08:08:23;;;;;;;69.90;29.75;;;7.30;99.90;;;;;;5047994;28;20112;-56
2021/10/16 08:10:49;;;;;;;63.35;28.65;;;7.30;99.90;;;;;;5049412;28;20025;-58
2021/10/16 08:13:15;;;;;;;74.72;27.88;;;7.40;99.90;;;;;;5048974;28;20025;-58
2021/10/16 08:15:40;;;;;;;76.05;27.73;;;7.40;99.90;;;;;;5048393;28;20025;-56
2021/10/16 08:18:06;;;;;;;61.83;26.13;;;7.40;99.90;;;;;;5046469;28;20478;-59
2021/10/16 08:20:32;;;;;;;72.25;27.98;;;7.30;99.90;;;;;;5042209;28;20043;-55
2021/10/16 08:22:57;;;;;;;62.90;26.27;;;7.30;99.90;;;;;;5044850;28;20025;-56
2021/10/16 08:25:23;;;;;;;56.95;23.75;;;7.30;99.90;;;;;;5045332;28;20509;-56
2021/10/16 08:27:49;;;;;;;60.30;26.55;;;7.40;99.90;;;;;;5047544;28;20040;-57
2021/10/16 08:30:16;;;;;;;60.42;26.77;;;7.40;99.90;;;;;;5031214;28;20033;-56
2021/10/16 08:32:42;;;;;;;65.75;26.67;;;7.40;99.90;;;;;;5045673;28;20113;-58
2021/10/16 08:35:09;;;;;;;63.30;26.25;;;7.50;99.90;;;;;;5047286;28;20029;-58
2021/10/16 08:37:34;;;;;;;71.30;28.00;;;7.50;99.90;;;;;;5047991;28;20029;-56
2021/10/16 08:40:00;;;;;;;58.13;25.25;;;7.50;99.90;;;;;;5047426;28;20025;-58
2021/10/16 08:42:26;;;;;;;60.42;26.05;;;7.60;99.90;;;;;;5048468;28;20033;-57
2021/10/16 08:44:57;;;;;;;65.63;26.75;;;7.70;99.90;;;;;;5045978;28;20510;-57
2021/10/16 08:47:24;;;;;;;63.92;26.63;;;7.80;99.90;;;;;;5043267;28;20509;-57
2021/10/16 08:49:51;;;;;;;65.68;28.60;;;8.00;99.90;;;;;;5048573;28;20619;-58
2021/10/16 08:52:17;;;;;;;64.20;30.65;;;8.00;99.90;;;;;;5050982;28;20035;-56
2021/10/16 08:54:43;;;;;;;86.18;30.55;;;7.90;99.90;;;;;;5051550;28;20049;-56
2021/10/16 08:57:08;;;;;;;62.08;28.45;;;7.90;99.90;;;;;;5049340;28;20120;-57
2021/10/16 08:59:34;;;;;;;53.92;25.90;;;7.90;99.90;;;;;;5051550;28;20435;-58
2021/10/16 09:02:05;;;;;;;57.50;25.08;;;8.00;99.90;;;;;;5050761;28;20033;-60
2021/10/16 09:04:32;;;;;;;61.25;27.63;;;8.00;99.90;;;;;;5052183;28;20079;-58
2021/10/16 09:06:58;;;;;;;64.93;27.50;;;8.10;99.90;;;;;;5050634;28;20057;-59
2021/10/16 09:09:29;;;;;;;63.53;26.30;;;8.10;99.90;;;;;;5050820;28;20060;-58
2021/10/16 09:11:56;;;;;;;62.72;24.95;;;8.10;99.90;;;;;;5050787;28;20071;-57
2021/10/16 09:14:25;;;;;;;64.57;27.30;;;7.90;99.90;;;;;;5052186;28;20044;-60
2021/10/16 09:16:53;;;;;;;62.83;28.02;;;8.00;99.90;;;;;;5051846;28;20021;-54
2021/10/16 09:19:30;;;;;;;64.03;28.23;;;8.10;99.90;;;;;;5051044;28;20785;-56
2021/10/16 09:21:59;;;;;;;69.82;28.80;;;8.20;99.90;;;;;;5051665;28;20056;-56
2021/10/16 09:24:36;;;;;;;71.60;29.50;;;8.20;99.90;;;;;;5047062;28;20475;-58
2021/10/16 09:27:06;;;;;;;71.97;31.40;;;8.30;99.90;;;;;;5044112;28;20095;-58
2021/10/16 09:29:35;;;;;;;67.32;29.63;;;8.20;99.90;;;;;;5051550;28;20510;-58
2021/10/16 09:32:11;;;;;;;83.40;32.85;;;8.20;99.90;;;;;;5048185;28;20029;-59
2021/10/16 09:34:39;;;;;;;77.32;32.33;;;8.00;99.90;;;;;;5045809;28;20108;-59
2021/10/16 09:37:11;;;;;;;73.93;33.28;;;8.10;99.90;;;;;;5050465;28;20075;-56
2021/10/16 09:39:39;;;;;;;79.43;33.20;;;8.10;99.90;;;;;;5049924;28;20111;-58
2021/10/16 09:42:07;;;;;;;79.80;34.95;;;8.20;99.90;;;;;;5051188;28;20033;-57
2021/10/16 09:44:36;;;;;;;75.88;31.27;;;8.30;99.90;;;;;;5050955;28;20029;-58
2021/10/16 09:47:06;;;;;;;75.65;32.45;;;8.40;99.90;;;;;;5064451;22;20211;-59
2021/10/16 09:49:35;;;;;;;75.72;32.63;;;8.50;99.90;;;;;;5049929;28;20013;-58
2021/10/16 09:52:05;;;;;;;79.65;34.20;;;8.50;99.90;;;;;;5049303;28;20029;-59
2021/10/16 09:54:34;;;;;;;80.57;33.65;;;8.50;99.90;;;;;;5049011;28;20417;-59
2021/10/16 09:57:08;;;;;;;76.68;32.40;;;8.60;99.90;;;;;;5049964;28;20111;-59
2021/10/16 09:59:36;;;;;;;76.40;33.72;;;8.70;99.90;;;;;;5045181;28;20053;-58
2021/10/16 10:02:03;;;;;;;73.55;31.05;;;8.70;99.90;;;;;;5047316;28;20053;-59
2021/10/16 10:04:32;;;;;;;83.78;34.15;;;8.70;99.90;;;;;;5048051;28;20021;-57
2021/10/16 10:06:58;;;;;;;79.78;34.15;;;8.70;99.90;;;;;;5046705;28;20033;-61
2021/10/16 10:09:24;;;;;;;80.72;33.38;;;8.90;99.90;;;;;;5049216;28;20100;-58
2021/10/16 10:11:53;;;;;;;79.13;33.50;;;9.00;99.90;;;;;;5050395;28;20590;-59
2021/10/16 10:14:19;;;;;;;80.88;35.67;;;9.10;99.90;;;;;;5050608;28;20078;-60
2021/10/16 10:16:47;;;;;;;73.57;31.70;;;9.20;99.90;;;;;;5050049;28;20435;-60
2021/10/16 10:19:13;;;;;;;78.68;33.40;;;9.00;99.90;;;;;;5049557;28;20021;-58
2021/10/16 10:21:39;;;;;;;80.38;34.35;;;8.90;99.90;;;;;;5049936;28;20087;-61
2021/10/16 10:24:08;;;;;;;76.97;34.03;;;9.10;99.90;;;;;;5049344;28;20028;-60
2021/10/16 10:26:45;;;;;;;85.40;35.42;;;9.20;99.90;;;;;;5042864;28;20037;-57
2021/10/16 10:29:20;;;;;;;95.20;39.05;;;9.10;99.90;;;;;;5048896;28;20132;-60
2021/10/16 10:31:48;;;;;;;83.30;35.22;;;8.90;99.90;;;;;;5048386;28;20021;-58
2021/10/16 10:34:16;;;;;;;73.40;35.08;;;9.10;99.90;;;;;;5048295;28;20562;-59
2021/10/16 10:36:54;;;;;;;75.65;34.40;;;9.20;99.90;;;;;;5047050;28;20079;-58
2021/10/16 10:39:32;;;;;;;71.35;32.53;;;9.40;99.90;;;;;;5048698;28;20053;-59
2021/10/16 10:42:08;;;;;;;60.47;30.35;;;9.50;99.90;;;;;;5050161;28;20505;-58
2021/10/16 10:44:52;;;;;;;71.80;34.65;;;9.60;99.90;;;;;;5048772;28;20440;-60
2021/10/16 10:47:30;;;;;;;66.85;34.28;;;9.60;99.90;;;;;;5046359;28;20040;-59
2021/10/16 10:49:58;;;;;;;62.05;31.63;;;9.70;99.90;;;;;;5049161;28;20035;-61
2021/10/16 10:52:27;;;;;;;70.90;32.05;;;9.80;99.90;;;;;;5048609;28;20021;-61
2021/10/16 10:54:58;;;;;;;66.70;32.28;;;9.90;99.90;;;;;;5049365;28;20508;-58
2021/10/16 10:57:46;;;;;;;68.75;32.38;;;9.90;99.90;;;;;;5044292;28;20048;-59
2021/10/16 11:00:14;;;;;;;70.00;34.50;;;10.10;99.90;;;;;;5047397;28;20108;-60
2021/10/16 11:02:40;;;;;;;71.63;34.05;;;10.10;99.90;;;;;;5049552;28;20052;-60
2021/10/16 11:08:14;;;;;;;82.07;34.92;;;9.80;99.90;;;;;;5039099;28;20029;-59
2021/10/16 11:10:41;;;;;;;76.35;34.65;;;9.70;99.90;;;;;;5048844;28;20029;-58
2021/10/16 11:13:20;;;;;;;66.35;31.17;;;9.70;99.90;;;;;;5049379;28;20047;-57
2021/10/16 11:15:56;;;;;;;69.53;31.67;;;9.90;99.90;;;;;;5049057;28;20031;-58
2021/10/16 11:18:22;;;;;;;58.88;28.65;;;10.10;99.90;;;;;;5048859;28;20448;-61
2021/10/16 11:20:48;;;;;;;54.53;26.50;;;10.40;99.90;;;;;;5046034;28;20104;-59
2021/10/16 11:23:18;;;;;;;61.67;28.25;;;10.50;99.90;;;;;;5048926;28;20076;-61
2021/10/16 11:26:02;;;;;;;55.53;28.23;;;10.60;99.90;;;;;;5048469;28;20033;-60
2021/10/16 11:28:30;;;;;;;63.72;28.63;;;10.80;99.90;;;;;;5048229;28;20037;-61
2021/10/16 11:30:56;;;;;;;62.28;29.55;;;10.70;99.90;;;;;;5048843;28;20021;-62
2021/10/16 11:33:24;;;;;;;51.80;26.20;;;10.70;99.90;;;;;;5050200;28;20073;-61
2021/10/16 11:35:52;;;;;;;44.60;21.13;;;11.00;99.90;;;;;;5046227;28;20097;-62
2021/10/16 11:38:23;;;;;;;44.08;21.42;;;11.00;99.90;;;;;;5049954;28;20036;-62
2021/10/16 11:40:49;;;;;;;41.15;20.17;;;11.10;99.90;;;;;;5049563;28;20541;-61
2021/10/16 11:43:36;;;;;;;40.53;20.05;;;11.20;99.90;;;;;;5050577;28;20037;-61
2021/10/16 11:46:03;;;;;;;41.15;16.88;;;11.50;99.90;;;;;;5044720;28;20572;-60
2021/10/16 11:48:29;;;;;;;45.05;17.45;;;11.80;99.90;;;;;;5044120;28;20537;-61
2021/10/16 11:50:58;;;;;;;35.13;17.25;;;12.00;99.90;;;;;;5049398;28;20026;-61
2021/10/16 11:53:26;;;;;;;34.17;17.13;;;12.10;99.90;;;;;;5048115;28;20028;-61
2021/10/16 11:56:13;;;;;;;39.38;15.55;;;12.30;99.90;;;;;;5049674;28;20036;-62
2021/10/16 11:58:40;;;;;;;35.78;14.45;;;12.50;99.90;;;;;;5048405;28;20060;-62
2021/10/16 12:01:08;;;;;;;35.22;14.38;;;12.70;99.90;;;;;;5050095;28;20461;-63
2021/10/16 12:03:41;;;;;;;34.53;16.20;;;12.80;99.90;;;;;;5047899;28;20078;-63
2021/10/16 12:06:15;;;;;;;35.92;14.02;;;12.90;99.90;;;;;;5048976;28;20021;-61
2021/10/16 12:08:40;;;;;;;;;;;13.10;99.90;;;;;;5050209;28;20116;-62
2021/10/16 12:11:06;;;;;;;29.20;9.73;;;13.20;99.90;;;;;;5050125;28;20418;-62
2021/10/16 12:13:36;;;;;;;27.50;11.35;;;13.30;99.90;;;;;;5049545;28;20049;-63
2021/10/16 12:16:19;;;;;;;27.15;10.80;;;13.30;99.90;;;;;;5050852;28;20545;-62
2021/10/16 12:19:03;;;;;;;30.02;10.40;;;13.30;99.90;;;;;;5050433;28;20029;-62
2021/10/16 12:21:30;;;;;;;30.53;10.77;;;13.30;99.90;;;;;;5050811;28;20487;-61
2021/10/16 12:23:57;;;;;;;32.33;10.02;;;13.40;99.90;;;;;;5054331;28;20017;-62
2021/10/16 12:26:23;;;;;;;25.65;8.98;;;13.50;99.90;;;;;;5053438;28;20029;-62
2021/10/16 12:28:52;;;;;;;30.75;8.75;;;13.40;99.90;;;;;;5053458;28;20040;-60
2021/10/16 12:31:19;;;;;;;22.40;8.35;;;13.40;99.90;;;;;;5053751;28;20039;-61
2021/10/16 12:33:57;;;;;;;26.45;9.00;;;13.50;99.90;;;;;;5053160;28;20021;-62
2021/10/16 12:36:28;;;;;;;38.20;9.32;;;13.40;99.90;;;;;;5047276;28;20033;-62
2021/10/16 12:38:54;;;;;;;23.20;7.95;;;13.50;99.90;;;;;;5047325;28;20037;-62
2021/10/16 12:41:33;;;;;;;22.65;7.63;;;13.40;99.90;;;;;;5046849;28;20091;-61
2021/10/16 12:44:12;;;;;;;19.52;7.75;;;13.60;99.90;;;;;;5048724;28;20033;-60